• Join FlightAware (Why Join?)
  • Login
  • US Flag 
05:57AM EST


 

Airport Tracker/Info


-or-


 

Live Flight TrackerFlight Track Log ✈ N668DN ✈ 02-May-2013 ✈ KSAN - KATL

Flight Track Log - Related Links

Times and Time Zones

All times are in EDT time to prevent confusion due to time zone crossing. See the N668DN flight status page for this flight to view local times or setup timezone preferences in your user account.

Time Position Orientation Groundspeed Altitude Reporting Facility
EDT Latitude Longitude Course Direction KTS MPH feet Rate Location/Type
12:17PM 32.7397 -117.2167 90° East 167 192 1,100  Level Los Angeles Center
12:18PM 32.7547 -117.3047 281° West 239 275 3,300 2,340 Climbing Los Angeles Center
12:19PM 32.6975 -117.3500 214° Southwest 272 313 6,000 2,640 Climbing Los Angeles Center
12:20PM 32.6075 -116.8845 84° East  Level FlightAware Approximate
12:20PM 32.6572 -117.2733 122° Southeast 276 318 8,800  Level Los Angeles Center
12:21PM 32.6225 -116.7374 77° East  Level FlightAware Approximate
12:21PM 32.6406 -117.1789 102° East 289 333 11,100  Level Los Angeles Center
12:22PM 32.6333 -116.5903 90° East  Level FlightAware Approximate
12:22PM 32.6247 -117.0703 100° East 320 368 12,500  Level Los Angeles Center
12:23PM 32.6125 -116.9453 97° East 365 420 14,300 2,100 Climbing Los Angeles Center
12:24PM 32.6286 -116.7925 83° East 386 444 16,900 1,980 Climbing Los Angeles Center
12:25PM 32.6417 -116.6617 83° East 398 458 18,500 1,620 Climbing Los Angeles Center
12:26PM 32.6553 -116.5231 83° East 422 486 20,300 1,680 Climbing Los Angeles Center
12:27PM 32.6675 -116.3819 84° East 436 502 22,000 1,680 Climbing Los Angeles Center
12:28PM 32.6839 -116.2061 84° East 455 524 23,800 1,560 Climbing Los Angeles Center
12:29PM 32.6989 -116.0561 83° East 462 532 25,300 1,380 Climbing Los Angeles Center
12:30PM 32.7136 -115.9017 83° East 473 544 26,700 1,200 Climbing Los Angeles Center
12:31PM 32.7269 -115.7442 84° East 482 555 27,800 1,080 Climbing Los Angeles Center
12:32PM 32.7422 -115.5839 83° East 489 563 29,000 1,500 Climbing Los Angeles Center
12:33PM 32.7528 -115.3914 86° East 489 563 30,900 1,560 Climbing Los Angeles Center
12:35PM 32.7547 -115.2328 89° East 482 555 32,300 1,200 Climbing Los Angeles Center
12:36PM 32.7572 -115.0756 89° East 479 551 33,500 960 Climbing Los Angeles Center
12:37PM 32.7603 -114.9492 88° East 479 551 34,300 720 Climbing Los Angeles Center
12:38PM 32.7633 -114.7594 89° East 480 552 35,000 240 Climbing Los Angeles Center
12:39PM 32.7703 -114.5681 87° East 483 556 34,900 -60 Descending Los Angeles Center
12:40PM 32.7708 -114.4072 90° East 488 562 34,900  Level Los Angeles Center
12:41PM 32.7736 -114.2464 89° East 486 559 34,900  Level Los Angeles Center
12:42PM 32.7739 -114.0867 90° East 486 559 34,900  Level Los Angeles Center
12:42PM 32.7753 -114.0322 88° East 489 563 34,900  Level Albuquerque Center
12:43PM 32.7936 -113.8422 83° East 484 557 34,900  Level Albuquerque Center
12:44PM 32.8250 -113.6864 76° East 481 554 34,900  Level Albuquerque Center
12:45PM 32.8714 -113.5361 70° East 481 554 34,900  Level Albuquerque Center
12:46PM 32.9164 -113.3875 70° East 479 551 34,900  Level Albuquerque Center
12:47PM 32.9617 -113.2372 70° East 480 552 34,900  Level Albuquerque Center
12:48PM 33.0083 -113.0875 70° East 479 551 34,900  Level Albuquerque Center
12:49PM 33.0528 -112.9383 70° East 478 550 34,900  Level Albuquerque Center
12:51PM 33.1005 -112.7821 70° East  Level FlightAware Approximate
12:51PM 33.1517 -112.6064 70° East 481 554 34,900  Level Albuquerque Center
12:53PM 33.2003 -112.4425 70° East 480 552 35,000  Climbing Albuquerque Center
12:54PM 33.2444 -112.2919 71° East 481 554 35,000 -60 Level Albuquerque Center
12:55PM 33.2861 -112.1542 70° East 481 554 34,900 -60 Descending Albuquerque Center
12:57PM 33.3811 -111.8233 71° East 479 551 34,900  Level Albuquerque Center
12:58PM 33.4247 -111.6736 71° East 477 549 34,900  Level Albuquerque Center
12:59PM 33.4708 -111.5119 71° East 476 548 35,000  Climbing Albuquerque Center
01:00PM 33.5169 -111.3506 71° East 476 548 35,000  Level Albuquerque Center
01:01PM 33.5594 -111.2008 71° East 477 549 35,100 480 Climbing Albuquerque Center
01:02PM 33.6022 -111.0492 71° East 480 552 36,100 900 Climbing Albuquerque Center
01:03PM 33.6467 -110.8892 72° East 481 554 37,000 420 Climbing Albuquerque Center
01:04PM 33.6883 -110.7383 72° East 481 554 37,000  Level Albuquerque Center
01:05PM 33.7314 -110.5872 71° East 481 554 37,000  Level Albuquerque Center
01:06PM 33.7725 -110.4339 72° East 484 557 37,000  Level Albuquerque Center
01:07PM 33.8142 -110.2819 72° East 483 556 37,000  Level Albuquerque Center
01:08PM 33.8642 -110.0983 72° East 484 557 37,000  Level Albuquerque Center
01:09PM 33.9058 -109.9450 72° East 485 558 37,000  Level Albuquerque Center
01:10PM 33.9472 -109.7914 72° East 485 558 37,000  Level Albuquerque Center
01:11PM 33.9875 -109.6375 72° East 485 558 37,000  Level Albuquerque Center
01:12PM 34.0314 -109.4778 72° East 483 556 37,000  Level Albuquerque Center
01:13PM 34.0772 -109.3031 72° East 479 551 37,000  Level Albuquerque Center
01:14PM 34.1172 -109.1519 72° East 477 549 37,000  Level Albuquerque Center
01:15PM 34.1558 -109.0017 73° East 474 545 37,000  Level Albuquerque Center
01:16PM 34.1947 -108.8519 73° East 472 543 37,000  Level Albuquerque Center
01:17PM 34.2347 -108.7017 72° East 472 543 37,000  Level Albuquerque Center
01:18PM 34.2814 -108.5175 73° East 479 551 37,000  Level Albuquerque Center
01:19PM 34.3219 -108.3583 73° East 481 554 37,000  Level Albuquerque Center
01:20PM 34.3617 -108.2019 73° East 484 557 37,000  Level Albuquerque Center
01:21PM 34.4011 -108.0456 73° East 487 560 37,000  Level Albuquerque Center
01:23PM 34.4400 -107.8886 73° East 488 562 37,000  Level Albuquerque Center
01:24PM 34.4794 -107.7325 73° East 487 560 37,000  Level Albuquerque Center
01:25PM 34.5175 -107.5733 74° East 490 564 37,000  Level Albuquerque Center
01:26PM 34.5647 -107.3853 73° East 489 563 37,000  Level Albuquerque Center
01:27PM 34.6028 -107.2283 74° East 488 562 37,000  Level Albuquerque Center
01:28PM 34.6397 -107.0719 74° East 486 559 37,000  Level Albuquerque Center
01:29PM 34.6767 -106.9175 74° East 484 557 37,000  Level Albuquerque Center
01:30PM 34.7131 -106.7600 74° East 487 560 37,000  Level Albuquerque Center
01:31PM 34.7592 -106.5714 73° East 490 564 37,000  Level Albuquerque Center
01:32PM 34.7956 -106.4150 74° East 487 560 37,000  Level Albuquerque Center
01:33PM 34.8331 -106.2547 74° East 493 567 37,000  Level Albuquerque Center
01:34PM 34.8703 -106.0947 74° East 493 567 37,000  Level Albuquerque Center
01:35PM 34.9072 -105.9322 74° East 497 572 37,000  Level Albuquerque Center
01:36PM 34.9481 -105.7528 74° East 500 575 37,000  Level Albuquerque Center
01:37PM 34.9872 -105.5872 74° East 503 579 37,000  Level Albuquerque Center
01:38PM 35.0314 -105.3953 74° East 501 577 37,000  Level Albuquerque Center
01:39PM 35.0692 -105.2297 74° East 501 577 37,000  Level Albuquerque Center
01:40PM 35.1053 -105.0636 75° East 501 577 37,000  Level Albuquerque Center
01:41PM 35.1239 -104.8950 82° East 498 573 37,000  Level Albuquerque Center
01:42PM 35.1281 -104.7239 88° East 499 574 37,000  Level Albuquerque Center
01:43PM 35.1356 -104.5600 87° East 500 575 37,000  Level Albuquerque Center
01:44PM 35.1472 -104.3575 86° East 499 574 37,000  Level Albuquerque Center
01:45PM 35.1569 -104.1875 86° East 502 578 37,000  Level Albuquerque Center
01:46PM 35.1647 -104.0161 87° East 504 580 37,000  Level Albuquerque Center
01:47PM 35.1717 -103.8481 87° East 507 583 37,000  Level Albuquerque Center
01:48PM 35.1794 -103.6753 87° East 507 583 37,000  Level Albuquerque Center
01:49PM 35.1883 -103.4703 87° East 512 589 37,000  Level Albuquerque Center
01:50PM 35.1964 -103.2942 87° East 515 593 37,000  Level Albuquerque Center
01:51PM 35.2033 -103.1175 87° East 516 594 37,000  Level Albuquerque Center
01:53PM 35.2103 -102.9389 87° East 518 596 37,000  Level Albuquerque Center
01:54PM 35.2167 -102.7625 87° East 520 598 37,000  Level Albuquerque Center
01:55PM 35.2239 -102.5869 87° East 520 598 37,000  Level Albuquerque Center
01:56PM 35.2292 -102.4119 88° East 518 596 37,000  Level Albuquerque Center
01:57PM 35.2361 -102.2003 88° East 519 597 37,000  Level Albuquerque Center
01:58PM 35.2417 -102.0247 88° East 518 596 37,000  Level Albuquerque Center
01:59PM 35.2478 -101.8456 88° East 517 595 37,000  Level Albuquerque Center
02:00PM 35.2525 -101.6683 88° East 517 595 37,000  Level Albuquerque Center
02:01PM 35.2589 -101.4919 87° East 516 594 37,000  Level Albuquerque Center
02:02PM 35.2622 -101.3061 89° East 517 595 37,000  Level Albuquerque Center
02:03PM 35.2653 -101.1308 89° East 518 596 37,000  Level Albuquerque Center
02:04PM 35.2703 -100.9556 88° East 517 595 37,000  Level Albuquerque Center
02:05PM 35.2742 -100.7792 88° East 519 597 37,000  Level Albuquerque Center
02:06PM 35.2781 -100.5689 89° East 518 596 37,000  Level Albuquerque Center
02:07PM 35.2808 -100.3944 89° East 515 593 37,000  Level Albuquerque Center
02:08PM 35.2847 -100.2197 88° East 514 592 37,000  Level Albuquerque Center
02:09PM 35.2867 -100.0467 89° East 511 588 37,000  Level Albuquerque Center
02:10PM 35.2892 -99.8733 89° East 511 588 37,000  Level Albuquerque Center
02:11PM 35.2914 -99.7017 89° East 509 586 37,000  Level Albuquerque Center
02:12PM 35.2925 -99.5294 89° East 507 583 37,000  Level Albuquerque Center
02:13PM 35.2953 -99.3222 89° East 508 585 37,000  Level Albuquerque Center
02:14PM 35.2942 -99.2753 92° East 505 581 37,000  Level Fort Worth Center
02:15PM 35.2967 -99.1025 89° East 505 581 37,000  Level Fort Worth Center
02:16PM 35.2989 -98.9294 89° East 505 581 37,000  Level Fort Worth Center
02:17PM 35.2989 -98.7592 90° East 500 575 37,000  Level Fort Worth Center
02:18PM 35.2983 -98.5886 90° East 495 570 37,000  Level Fort Worth Center
02:19PM 35.3000 -98.4183 89° East 495 570 37,000  Level Fort Worth Center
02:20PM 35.2992 -98.2531 90° East 495 570 37,000  Level Fort Worth Center
02:21PM 35.2981 -98.0850 90° East 495 570 37,000  Level Fort Worth Center
02:22PM 35.2989 -97.9147 90° East 495 570 37,000  Level Fort Worth Center
02:23PM 35.2972 -97.7442 91° East 495 570 37,000  Level Fort Worth Center
02:24PM 35.2956 -97.5764 91° East 495 570 37,000  Level Fort Worth Center
02:25PM 35.2936 -97.4058 91° East 495 570 37,000  Level Fort Worth Center
02:26PM 35.2914 -97.2125 91° East 506 582 37,000  Level Fort Worth Center
02:27PM 35.2911 -97.0472 90° East 501 577 37,000  Level Fort Worth Center
02:28PM 35.2903 -96.8819 90° East 495 570 37,000  Level Fort Worth Center
02:29PM 35.2875 -96.7117 91° East 495 570 37,000  Level Fort Worth Center
02:30PM 35.2844 -96.5464 91° East 495 570 37,000  Level Fort Worth Center
02:31PM 35.2831 -96.3811 91° East 495 570 37,000 300 Level Fort Worth Center
02:32PM 35.2794 -96.2158 91° East 495 570 37,700 480 Climbing Fort Worth Center
02:33PM 35.2778 -96.0481 91° East 490 564 38,000 120 Climbing Fort Worth Center
02:34PM 35.2739 -95.8803 92° East 490 564 38,000  Level Fort Worth Center
02:35PM 35.2719 -95.7328 91° East 490 564 38,000  Level Fort Worth Center
02:36PM 35.2675 -95.5675 92° East 485 558 38,000  Level Fort Worth Center
02:37PM 35.2617 -95.3106 92° East 473 544 38,000  Level Memphis Center
02:38PM 35.2578 -95.1425 92° East 485 558 38,100 300 Climbing Memphis Center
02:39PM 35.2536 -94.9769 92° East 485 558 38,700 420 Climbing Memphis Center
02:40PM 35.2469 -94.8114 93° East 485 558 39,000 120 Climbing Memphis Center
02:41PM 35.2447 -94.6383 91° East 490 564 39,000  Level Memphis Center
02:42PM 35.2400 -94.4731 92° East 495 570 39,000  Level Memphis Center
02:43PM 35.2328 -94.3050 93° East 495 570 39,000  Level Memphis Center
02:44PM 35.2275 -94.1419 92° East 495 570 39,000  Level Memphis Center
02:45PM 35.2219 -93.9739 92° East 495 570 39,000  Level Memphis Center
02:46PM 35.2161 -93.8111 92° East 489 563 39,000  Level Memphis Center
02:47PM 35.2103 -93.6481 92° East 489 563 39,000  Level Memphis Center
02:48PM 35.2019 -93.4828 93° East 483 556 39,000  Level Memphis Center
02:49PM 35.1975 -93.3200 92° East 475 547 39,000  Level Memphis Center
02:50PM 35.1931 -93.1544 92° East 483 556 39,000  Level Memphis Center
02:51PM 35.1858 -93.0094 93° East 483 556 39,000  Level Memphis Center
02:52PM 35.1789 -92.8392 93° East 483 556 39,000  Level Memphis Center
02:53PM 35.1675 -92.6661 95° East 488 562 39,000  Level Memphis Center
02:54PM 35.1600 -92.4983 93° East 503 579 39,000 -60 Level Memphis Center
02:55PM 35.1544 -92.3331 92° East 498 573 38,900 -660 Descending Memphis Center
02:56PM 35.1467 -92.1703 93° East 492 566 37,700 -1,020 Descending Memphis Center
02:57PM 35.1383 -92.0100 94° East 480 552 36,900 -1,320 Descending Memphis Center
02:58PM 35.1278 -91.8525 95° East 475 547 35,100 -960 Descending Memphis Center
02:59PM 35.1214 -91.6925 93° East 470 541 35,000 -60 Descending Memphis Center
03:00PM 35.1103 -91.5297 95° East 470 541 35,000  Level Memphis Center
03:01PM 35.1056 -91.3572 92° East 475 547 35,000  Level Memphis Center
03:02PM 35.0942 -91.1944 95° East 470 541 35,000  Level Memphis Center
03:03PM 35.0869 -91.0372 93° East 475 547 35,000  Level Memphis Center
03:04PM 35.0542 -90.8797 104° East 475 547 35,000  Level Memphis Center
03:05PM 35.0131 -90.7322 109° East 468 539 35,000  Level Memphis Center
03:06PM 34.9800 -90.5800 105° East 468 539 35,000  Level Memphis Center
03:07PM 34.9636 -90.4153 97° East 474 545 35,000  Level Memphis Center
03:08PM 34.9469 -90.2608 97° East 474 545 35,000  Level Memphis Center
03:09PM 34.9258 -90.0986 99° East 474 545 35,000  Level Memphis Center
03:10PM 34.9108 -89.9594 97° East 474 545 35,000  Level Memphis Center
03:11PM 34.8892 -89.7925 99° East 474 545 35,000  Level Memphis Center
03:12PM 34.8717 -89.6356 98° East 479 551 35,000  Level Memphis Center
03:13PM 34.8558 -89.4586 96° East 487 560 35,000 -60 Level Memphis Center
03:14PM 34.8381 -89.3044 98° East 465 535 34,900 -180 Descending Memphis Center
03:15PM 34.8219 -89.1453 97° East 465 535 34,700 -780 Descending Memphis Center
03:16PM 34.8036 -88.9914 98° East 465 535 33,400 -900 Descending Memphis Center
03:17PM 34.7872 -88.8322 97° East 465 535 33,000 -240 Descending Memphis Center
03:18PM 34.7708 -88.6886 98° East 470 541 33,000  Level Memphis Center
03:19PM 34.7497 -88.5272 99° East 475 547 33,000  Level Memphis Center
03:20PM 34.7325 -88.3608 97° East 462 532 33,000  Level Memphis Center
03:21PM 34.7111 -88.1994 99° East 467 537 33,000  Level Memphis Center
03:22PM 34.6958 -88.0458 97° East 490 564 33,000  Level Memphis Center
03:23PM 34.6761 -87.8897 99° East 479 551 33,000  Level Memphis Center
03:24PM 34.6536 -87.7139 99° East 479 551 33,000  Level Memphis Center
03:26PM 34.6075 -87.3550 99° East 472 543 33,000  Level Atlanta Center
03:27PM 34.5761 -87.1997 104° East 467 537 33,000  Level Atlanta Center
03:28PM 34.5464 -87.0450 103° East 467 537 33,000  Level Atlanta Center
03:29PM 34.5167 -86.8925 103° East 467 537 33,000 -120 Level Atlanta Center
03:30PM 34.4869 -86.7378 103° East 467 537 32,800 -780 Descending Atlanta Center
03:31PM 34.4625 -86.6111 103° East 467 537 31,500 -1,320 Descending Atlanta Center
03:32PM 34.4303 -86.4464 103° East 467 537 30,200 -1,320 Descending Atlanta Center
03:33PM 34.3997 -86.2919 103° East 467 537 28,900 -1,140 Descending Atlanta Center
03:34PM 34.3711 -86.1403 103° East 467 537 28,000 -1,200 Descending Atlanta Center
03:35PM 34.3403 -85.9936 104° East 462 532 26,600 -1,560 Descending Atlanta Center
03:36PM 34.3153 -85.8469 102° East 445 512 24,900 -2,100 Descending Atlanta Center
03:37PM 34.2819 -85.6981 105° East 429 494 22,500 -2,340 Descending Atlanta Center
03:38PM 34.2564 -85.5669 103° East 409 471 20,300 -2,040 Descending Atlanta Center
03:39PM 34.2203 -85.4431 109° East 396 456 18,500 -1,800 Descending Atlanta Center
03:40PM 34.1819 -85.3319 113° Southeast 375 432 16,700 -1,860 Descending Atlanta Center
03:41PM 34.1475 -85.2186 110° East 365 420 14,800 -1,680 Descending Atlanta Center
03:42PM 34.1153 -85.1078 109° East 355 409 13,400 -900 Descending Atlanta Center
03:43PM 34.0806 -85.0144 114° Southeast 327 376 13,000 -840 Descending Atlanta Center
03:44PM 34.0100 -84.9711 153° Southeast 272 313 11,800 -1,440 Descending Atlanta Center
03:45PM 33.9372 -84.9378 159° South 278 320 10,200 -1,440 Descending Atlanta Center
03:46PM 33.8642 -84.9219 170° South 278 320 9,000 -780 Descending Atlanta Center
03:47PM 33.7889 -84.9211 179° South 273 314 8,700 -840 Descending Atlanta Center
03:48PM 33.7222 -84.9231 181° South 273 314 7,400 -900 Descending Atlanta Center
03:49PM 33.6533 -84.9247 181° South 267 307 7,000 -240 Descending Atlanta Center
03:50PM 33.6308 -84.8622 113° Southeast 192 221 7,000 -120 Level Atlanta Center
03:51PM 33.6311 -84.8022 90° East 177 204 6,800 -720 Descending Atlanta Center
03:52PM 33.6333 -84.7333 88° East 176 203 5,600 -1,020 Descending Atlanta TRACON
03:53PM 33.6333 -84.6667 90° East 165 190 4,800 -900 Descending Atlanta TRACON
03:54PM 33.6333 -84.6167 90° East 170 196 3,800 -1,020 Descending Atlanta TRACON